sensor_id;sensor_type;location;lat;lon;timestamp;P1;durP1;ratioP1;P2;durP2;ratioP2
79412;SDS011;68863;49.528;11.010;2023-04-03T00:00:51;2.28;;;0.60;;
79412;SDS011;68863;49.528;11.010;2023-04-03T00:01:51;2.17;;;0.57;;
79412;SDS011;68863;49.528;11.010;2023-04-03T00:02:51;3.20;;;0.63;;
79412;SDS011;68863;49.528;11.010;2023-04-03T00:03:51;3.17;;;0.80;;
79412;SDS011;68863;49.528;11.010;2023-04-03T00:04:52;3.13;;;0.90;;
79412;SDS011;68863;49.528;11.010;2023-04-03T00:05:52;2.40;;;0.60;;
79412;SDS011;68863;49.528;11.010;2023-04-03T00:06:52;3.33;;;0.75;;
79412;SDS011;68863;49.528;11.010;2023-04-03T00:07:53;3.37;;;0.80;;
79412;SDS011;68863;49.528;11.010;2023-04-03T00:08:53;3.27;;;0.67;;
79412;SDS011;68863;49.528;11.010;2023-04-03T00:09:54;2.08;;;0.50;;
79412;SDS011;68863;49.528;11.010;2023-04-03T00:10:54;3.17;;;0.68;;
79412;SDS011;68863;49.528;11.010;2023-04-03T00:11:55;2.90;;;0.70;;
79412;SDS011;68863;49.528;11.010;2023-04-03T00:12:55;2.90;;;0.75;;
79412;SDS011;68863;49.528;11.010;2023-04-03T00:13:55;3.67;;;0.70;;
79412;SDS011;68863;49.528;11.010;2023-04-03T00:14:56;2.93;;;0.70;;
79412;SDS011;68863;49.528;11.010;2023-04-03T00:15:56;3.17;;;0.60;;
79412;SDS011;68863;49.528;11.010;2023-04-03T00:16:56;2.83;;;0.70;;
79412;SDS011;68863;49.528;11.010;2023-04-03T00:17:57;3.53;;;0.90;;
79412;SDS011;68863;49.528;11.010;2023-04-03T00:18:57;3.30;;;1.13;;
79412;SDS011;68863;49.528;11.010;2023-04-03T00:19:57;3.37;;;0.73;;
79412;SDS011;68863;49.528;11.010;2023-04-03T00:20:57;2.65;;;0.60;;
79412;SDS011;68863;49.528;11.010;2023-04-03T00:21:58;2.42;;;0.70;;
79412;SDS011;68863;49.528;11.010;2023-04-03T00:22:58;2.83;;;0.90;;
79412;SDS011;68863;49.528;11.010;2023-04-03T00:23:59;2.40;;;0.60;;
79412;SDS011;68863;49.528;11.010;2023-04-03T00:25:00;3.03;;;0.60;;
79412;SDS011;68863;49.528;11.010;2023-04-03T00:26:00;2.55;;;0.65;;
79412;SDS011;68863;49.528;11.010;2023-04-03T00:27:00;3.00;;;0.80;;
79412;SDS011;68863;49.528;11.010;2023-04-03T00:28:01;2.97;;;0.70;;
79412;SDS011;68863;49.528;11.010;2023-04-03T00:29:02;3.17;;;0.90;;
79412;SDS011;68863;49.528;11.010;2023-04-03T00:30:03;2.83;;;0.80;;
79412;SDS011;68863;49.528;11.010;2023-04-03T00:31:03;2.28;;;0.55;;
79412;SDS011;68863;49.528;11.010;2023-04-03T00:32:04;2.47;;;0.60;;
79412;SDS011;68863;49.528;11.010;2023-04-03T00:33:04;2.40;;;0.57;;
79412;SDS011;68863;49.528;11.010;2023-04-03T00:34:04;2.92;;;0.80;;
79412;SDS011;68863;49.528;11.010;2023-04-03T00:35:05;2.07;;;0.60;;
79412;SDS011;68863;49.528;11.010;2023-04-03T00:36:06;3.22;;;0.90;;
79412;SDS011;68863;49.528;11.010;2023-04-03T00:37:10;2.90;;;0.80;;
79412;SDS011;68863;49.528;11.010;2023-04-03T00:38:10;2.33;;;0.52;;
79412;SDS011;68863;49.528;11.010;2023-04-03T00:39:11;2.65;;;0.70;;
79412;SDS011;68863;49.528;11.010;2023-04-03T00:40:11;2.53;;;0.50;;
79412;SDS011;68863;49.528;11.010;2023-04-03T00:41:13;2.92;;;0.80;;
79412;SDS011;68863;49.528;11.010;2023-04-03T00:42:13;2.88;;;0.60;;
79412;SDS011;68863;49.528;11.010;2023-04-03T00:43:23;3.90;;;0.70;;
79412;SDS011;68863;49.528;11.010;2023-04-03T00:46:37;2.58;;;0.75;;
79412;SDS011;68863;49.528;11.010;2023-04-03T00:47:38;2.73;;;0.90;;
79412;SDS011;68863;49.528;11.010;2023-04-03T00:48:41;3.13;;;0.70;;
79412;SDS011;68863;49.528;11.010;2023-04-03T00:49:44;4.75;;;1.00;;
79412;SDS011;68863;49.528;11.010;2023-04-03T00:50:45;2.60;;;0.70;;
79412;SDS011;68863;49.528;11.010;2023-04-03T00:51:46;2.15;;;0.80;;
79412;SDS011;68863;49.528;11.010;2023-04-03T00:52:47;2.72;;;0.65;;
79412;SDS011;68863;49.528;11.010;2023-04-03T00:53:50;2.92;;;0.73;;
79412;SDS011;68863;49.528;11.010;2023-04-03T00:54:57;3.03;;;0.93;;
79412;SDS011;68863;49.528;11.010;2023-04-03T00:56:02;3.20;;;0.70;;
79412;SDS011;68863;49.528;11.010;2023-04-03T00:57:06;3.00;;;0.75;;
79412;SDS011;68863;49.528;11.010;2023-04-03T00:58:08;3.67;;;0.60;;
79412;SDS011;68863;49.528;11.010;2023-04-03T00:59:14;2.92;;;0.80;;
79412;SDS011;68863;49.528;11.010;2023-04-03T01:00:17;2.38;;;0.70;;
79412;SDS011;68863;49.528;11.010;2023-04-03T01:01:21;3.45;;;0.73;;
79412;SDS011;68863;49.528;11.010;2023-04-03T01:02:25;2.42;;;0.60;;
79412;SDS011;68863;49.528;11.010;2023-04-03T01:03:25;2.03;;;0.60;;
79412;SDS011;68863;49.528;11.010;2023-04-03T01:04:27;2.80;;;0.80;;
79412;SDS011;68863;49.528;11.010;2023-04-03T01:09:04;2.35;;;0.57;;
79412;SDS011;68863;49.528;11.010;2023-04-03T01:10:06;2.38;;;0.60;;
79412;SDS011;68863;49.528;11.010;2023-04-03T01:11:09;3.08;;;0.60;;
79412;SDS011;68863;49.528;11.010;2023-04-03T01:12:16;2.17;;;0.50;;
79412;SDS011;68863;49.528;11.010;2023-04-03T01:13:29;3.60;;;0.70;;
79412;SDS011;68863;49.528;11.010;2023-04-03T01:14:32;2.95;;;0.63;;
79412;SDS011;68863;49.528;11.010;2023-04-03T01:15:32;3.70;;;0.60;;
79412;SDS011;68863;49.528;11.010;2023-04-03T01:17:36;2.60;;;0.60;;
79412;SDS011;68863;49.528;11.010;2023-04-03T01:18:39;3.05;;;0.70;;
79412;SDS011;68863;49.528;11.010;2023-04-03T01:19:40;2.50;;;0.70;;
79412;SDS011;68863;49.528;11.010;2023-04-03T01:22:29;2.50;;;0.70;;
79412;SDS011;68863;49.528;11.010;2023-04-03T01:23:58;3.28;;;0.60;;
79412;SDS011;68863;49.528;11.010;2023-04-03T01:25:05;2.97;;;0.55;;
79412;SDS011;68863;49.528;11.010;2023-04-03T01:26:05;2.50;;;0.60;;
79412;SDS011;68863;49.528;11.010;2023-04-03T01:27:06;2.78;;;0.52;;
79412;SDS011;68863;49.528;11.010;2023-04-03T01:28:12;2.58;;;0.80;;
79412;SDS011;68863;49.528;11.010;2023-04-03T01:29:16;4.00;;;0.70;;
79412;SDS011;68863;49.528;11.010;2023-04-03T01:30:17;3.08;;;0.95;;
79412;SDS011;68863;49.528;11.010;2023-04-03T01:31:22;2.65;;;0.70;;
79412;SDS011;68863;49.528;11.010;2023-04-03T01:32:26;2.75;;;0.57;;
79412;SDS011;68863;49.528;11.010;2023-04-03T01:33:27;2.77;;;0.60;;
79412;SDS011;68863;49.528;11.010;2023-04-03T01:34:28;2.80;;;0.60;;
79412;SDS011;68863;49.528;11.010;2023-04-03T01:35:29;3.90;;;0.70;;
79412;SDS011;68863;49.528;11.010;2023-04-03T01:36:30;2.67;;;0.63;;
79412;SDS011;68863;49.528;11.010;2023-04-03T01:37:31;2.40;;;0.55;;
79412;SDS011;68863;49.528;11.010;2023-04-03T01:38:31;2.77;;;0.67;;
79412;SDS011;68863;49.528;11.010;2023-04-03T01:39:32;2.05;;;0.57;;
79412;SDS011;68863;49.528;11.010;2023-04-03T01:40:32;2.90;;;0.73;;
79412;SDS011;68863;49.528;11.010;2023-04-03T01:41:33;2.30;;;0.50;;
79412;SDS011;68863;49.528;11.010;2023-04-03T01:42:33;2.70;;;0.70;;
79412;SDS011;68863;49.528;11.010;2023-04-03T01:43:33;2.80;;;0.57;;
79412;SDS011;68863;49.528;11.010;2023-04-03T01:44:33;2.45;;;0.60;;
79412;SDS011;68863;49.528;11.010;2023-04-03T01:45:34;2.65;;;0.55;;
79412;SDS011;68863;49.528;11.010;2023-04-03T01:46:34;2.33;;;0.50;;
79412;SDS011;68863;49.528;11.010;2023-04-03T01:47:35;2.70;;;0.63;;
79412;SDS011;68863;49.528;11.010;2023-04-03T01:48:35;4.05;;;0.70;;
79412;SDS011;68863;49.528;11.010;2023-04-03T01:49:35;4.72;;;0.73;;
79412;SDS011;68863;49.528;11.010;2023-04-03T01:50:36;3.90;;;1.00;;
79412;SDS011;68863;49.528;11.010;2023-04-03T01:51:36;3.00;;;0.77;;
79412;SDS011;68863;49.528;11.010;2023-04-03T01:52:36;3.03;;;0.60;;
79412;SDS011;68863;49.528;11.010;2023-04-03T01:53:37;2.45;;;0.60;;
79412;SDS011;68863;49.528;11.010;2023-04-03T01:54:37;2.97;;;0.60;;
79412;SDS011;68863;49.528;11.010;2023-04-03T01:55:37;2.95;;;0.70;;
79412;SDS011;68863;49.528;11.010;2023-04-03T01:56:38;2.40;;;0.60;;
79412;SDS011;68863;49.528;11.010;2023-04-03T01:57:38;3.03;;;0.60;;
79412;SDS011;68863;49.528;11.010;2023-04-03T01:58:39;2.47;;;0.60;;
79412;SDS011;68863;49.528;11.010;2023-04-03T01:59:39;3.15;;;0.65;;
79412;SDS011;68863;49.528;11.010;2023-04-03T02:00:39;4.70;;;0.80;;
79412;SDS011;68863;49.528;11.010;2023-04-03T02:01:40;4.30;;;0.70;;
79412;SDS011;68863;49.528;11.010;2023-04-03T02:02:40;3.00;;;0.60;;
79412;SDS011;68863;49.528;11.010;2023-04-03T02:03:40;2.40;;;0.60;;
79412;SDS011;68863;49.528;11.010;2023-04-03T02:04:41;2.27;;;0.60;;
79412;SDS011;68863;49.528;11.010;2023-04-03T02:05:41;4.18;;;0.70;;
79412;SDS011;68863;49.528;11.010;2023-04-03T02:06:41;3.22;;;0.60;;
79412;SDS011;68863;49.528;11.010;2023-04-03T02:07:42;2.83;;;0.60;;
79412;SDS011;68863;49.528;11.010;2023-04-03T02:08:42;3.30;;;0.65;;
79412;SDS011;68863;49.528;11.010;2023-04-03T02:09:42;1.55;;;0.50;;
79412;SDS011;68863;49.528;11.010;2023-04-03T02:10:42;2.90;;;0.50;;
79412;SDS011;68863;49.528;11.010;2023-04-03T02:11:43;2.72;;;0.60;;
79412;SDS011;68863;49.528;11.010;2023-04-03T02:12:43;3.40;;;0.80;;
79412;SDS011;68863;49.528;11.010;2023-04-03T02:13:44;3.40;;;0.80;;
79412;SDS011;68863;49.528;11.010;2023-04-03T02:14:44;2.60;;;0.70;;
79412;SDS011;68863;49.528;11.010;2023-04-03T02:15:45;3.05;;;0.90;;
79412;SDS011;68863;49.528;11.010;2023-04-03T02:16:45;3.80;;;0.77;;
79412;SDS011;68863;49.528;11.010;2023-04-03T02:17:46;2.93;;;0.70;;
79412;SDS011;68863;49.528;11.010;2023-04-03T02:18:46;2.97;;;0.60;;
79412;SDS011;68863;49.528;11.010;2023-04-03T02:19:46;2.28;;;0.60;;
79412;SDS011;68863;49.528;11.010;2023-04-03T02:20:47;2.45;;;0.50;;
79412;SDS011;68863;49.528;11.010;2023-04-03T02:21:47;2.13;;;0.50;;
79412;SDS011;68863;49.528;11.010;2023-04-03T02:22:47;3.17;;;0.75;;
79412;SDS011;68863;49.528;11.010;2023-04-03T02:23:48;2.72;;;0.52;;
79412;SDS011;68863;49.528;11.010;2023-04-03T02:24:49;3.17;;;0.82;;
79412;SDS011;68863;49.528;11.010;2023-04-03T02:25:49;3.33;;;0.68;;
79412;SDS011;68863;49.528;11.010;2023-04-03T02:26:50;2.90;;;0.60;;
79412;SDS011;68863;49.528;11.010;2023-04-03T02:27:50;3.45;;;0.60;;
79412;SDS011;68863;49.528;11.010;2023-04-03T02:28:50;3.50;;;0.77;;
79412;SDS011;68863;49.528;11.010;2023-04-03T02:29:51;3.20;;;0.70;;
79412;SDS011;68863;49.528;11.010;2023-04-03T02:30:51;3.10;;;0.70;;
79412;SDS011;68863;49.528;11.010;2023-04-03T02:31:51;4.15;;;0.90;;
79412;SDS011;68863;49.528;11.010;2023-04-03T02:32:52;3.05;;;0.80;;
79412;SDS011;68863;49.528;11.010;2023-04-03T02:33:52;2.55;;;0.60;;
79412;SDS011;68863;49.528;11.010;2023-04-03T02:34:52;3.67;;;0.70;;
79412;SDS011;68863;49.528;11.010;2023-04-03T02:35:56;3.57;;;0.70;;
79412;SDS011;68863;49.528;11.010;2023-04-03T02:36:56;4.03;;;0.70;;
79412;SDS011;68863;49.528;11.010;2023-04-03T02:37:57;3.25;;;0.80;;
79412;SDS011;68863;49.528;11.010;2023-04-03T02:38:57;3.78;;;0.88;;
79412;SDS011;68863;49.528;11.010;2023-04-03T02:39:58;3.75;;;0.70;;
79412;SDS011;68863;49.528;11.010;2023-04-03T02:41:02;2.58;;;0.50;;
79412;SDS011;68863;49.528;11.010;2023-04-03T02:42:04;3.50;;;0.80;;
79412;SDS011;68863;49.528;11.010;2023-04-03T02:43:05;3.00;;;0.70;;
79412;SDS011;68863;49.528;11.010;2023-04-03T02:44:05;3.13;;;0.60;;
79412;SDS011;68863;49.528;11.010;2023-04-03T02:45:07;3.15;;;0.70;;
79412;SDS011;68863;49.528;11.010;2023-04-03T02:46:07;3.42;;;0.80;;
79412;SDS011;68863;49.528;11.010;2023-04-03T02:47:08;3.25;;;0.70;;
79412;SDS011;68863;49.528;11.010;2023-04-03T02:48:08;4.88;;;0.95;;
79412;SDS011;68863;49.528;11.010;2023-04-03T02:49:09;2.97;;;0.68;;
79412;SDS011;68863;49.528;11.010;2023-04-03T02:50:09;4.72;;;0.80;;
79412;SDS011;68863;49.528;11.010;2023-04-03T02:51:09;3.78;;;0.80;;
79412;SDS011;68863;49.528;11.010;2023-04-03T02:52:10;4.30;;;0.70;;
79412;SDS011;68863;49.528;11.010;2023-04-03T02:53:10;3.13;;;0.63;;
79412;SDS011;68863;49.528;11.010;2023-04-03T02:54:10;3.03;;;0.73;;
79412;SDS011;68863;49.528;11.010;2023-04-03T02:55:13;3.80;;;0.80;;
79412;SDS011;68863;49.528;11.010;2023-04-03T02:56:14;3.97;;;0.73;;
79412;SDS011;68863;49.528;11.010;2023-04-03T02:57:15;2.65;;;0.70;;
79412;SDS011;68863;49.528;11.010;2023-04-03T02:58:15;3.33;;;0.80;;
79412;SDS011;68863;49.528;11.010;2023-04-03T02:59:16;4.50;;;0.80;;
79412;SDS011;68863;49.528;11.010;2023-04-03T03:00:16;4.93;;;0.70;;
79412;SDS011;68863;49.528;11.010;2023-04-03T03:01:17;3.13;;;0.60;;
79412;SDS011;68863;49.528;11.010;2023-04-03T03:02:17;2.88;;;0.70;;
79412;SDS011;68863;49.528;11.010;2023-04-03T03:03:17;2.97;;;0.63;;
79412;SDS011;68863;49.528;11.010;2023-04-03T03:04:18;3.20;;;0.57;;
79412;SDS011;68863;49.528;11.010;2023-04-03T03:05:18;2.95;;;0.77;;
79412;SDS011;68863;49.528;11.010;2023-04-03T03:06:18;3.10;;;0.60;;
79412;SDS011;68863;49.528;11.010;2023-04-03T03:07:19;3.53;;;0.85;;
79412;SDS011;68863;49.528;11.010;2023-04-03T03:08:19;3.80;;;0.65;;
79412;SDS011;68863;49.528;11.010;2023-04-03T03:09:20;4.88;;;1.10;;
79412;SDS011;68863;49.528;11.010;2023-04-03T03:10:20;4.10;;;0.77;;
79412;SDS011;68863;49.528;11.010;2023-04-03T03:11:21;3.63;;;0.70;;
79412;SDS011;68863;49.528;11.010;2023-04-03T03:12:21;3.53;;;0.77;;
79412;SDS011;68863;49.528;11.010;2023-04-03T03:13:23;2.60;;;0.68;;
79412;SDS011;68863;49.528;11.010;2023-04-03T03:14:24;3.85;;;0.90;;
79412;SDS011;68863;49.528;11.010;2023-04-03T03:15:24;2.60;;;0.60;;
79412;SDS011;68863;49.528;11.010;2023-04-03T03:16:25;3.25;;;0.77;;
79412;SDS011;68863;49.528;11.010;2023-04-03T03:17:28;3.17;;;0.70;;
79412;SDS011;68863;49.528;11.010;2023-04-03T03:18:29;3.47;;;0.70;;
79412;SDS011;68863;49.528;11.010;2023-04-03T03:19:30;3.30;;;0.85;;
79412;SDS011;68863;49.528;11.010;2023-04-03T03:20:30;4.00;;;1.00;;
79412;SDS011;68863;49.528;11.010;2023-04-03T03:21:30;4.00;;;0.67;;
79412;SDS011;68863;49.528;11.010;2023-04-03T03:22:32;3.50;;;0.80;;
79412;SDS011;68863;49.528;11.010;2023-04-03T03:23:33;3.47;;;0.73;;
79412;SDS011;68863;49.528;11.010;2023-04-03T03:24:33;4.65;;;1.05;;
79412;SDS011;68863;49.528;11.010;2023-04-03T03:25:37;3.90;;;0.82;;
79412;SDS011;68863;49.528;11.010;2023-04-03T03:26:38;4.13;;;0.80;;
79412;SDS011;68863;49.528;11.010;2023-04-03T03:27:39;3.15;;;1.33;;
79412;SDS011;68863;49.528;11.010;2023-04-03T03:28:40;4.30;;;0.98;;
79412;SDS011;68863;49.528;11.010;2023-04-03T03:29:40;4.55;;;1.10;;
79412;SDS011;68863;49.528;11.010;2023-04-03T03:30:40;5.95;;;1.00;;
79412;SDS011;68863;49.528;11.010;2023-04-03T03:31:41;3.05;;;0.80;;
79412;SDS011;68863;49.528;11.010;2023-04-03T03:32:41;3.67;;;1.00;;
79412;SDS011;68863;49.528;11.010;2023-04-03T03:33:41;4.40;;;1.00;;
79412;SDS011;68863;49.528;11.010;2023-04-03T03:34:42;3.95;;;1.05;;
79412;SDS011;68863;49.528;11.010;2023-04-03T03:35:42;2.60;;;0.73;;
79412;SDS011;68863;49.528;11.010;2023-04-03T03:36:43;3.85;;;1.13;;
79412;SDS011;68863;49.528;11.010;2023-04-03T03:37:43;2.80;;;0.93;;
79412;SDS011;68863;49.528;11.010;2023-04-03T03:38:44;4.28;;;0.88;;
79412;SDS011;68863;49.528;11.010;2023-04-03T03:39:44;4.50;;;1.10;;
79412;SDS011;68863;49.528;11.010;2023-04-03T03:40:46;3.07;;;1.10;;
79412;SDS011;68863;49.528;11.010;2023-04-03T03:41:47;3.88;;;1.05;;
79412;SDS011;68863;49.528;11.010;2023-04-03T03:42:49;3.33;;;0.90;;
79412;SDS011;68863;49.528;11.010;2023-04-03T03:43:49;4.07;;;1.05;;
79412;SDS011;68863;49.528;11.010;2023-04-03T03:44:50;4.32;;;1.05;;
79412;SDS011;68863;49.528;11.010;2023-04-03T03:45:51;4.03;;;0.90;;
79412;SDS011;68863;49.528;11.010;2023-04-03T03:46:52;4.50;;;1.10;;
79412;SDS011;68863;49.528;11.010;2023-04-03T03:47:52;4.03;;;0.80;;
79412;SDS011;68863;49.528;11.010;2023-04-03T03:48:53;2.90;;;0.90;;
79412;SDS011;68863;49.528;11.010;2023-04-03T03:49:53;3.58;;;0.95;;
79412;SDS011;68863;49.528;11.010;2023-04-03T03:50:53;4.73;;;1.00;;
79412;SDS011;68863;49.528;11.010;2023-04-03T03:51:53;4.40;;;1.13;;
79412;SDS011;68863;49.528;11.010;2023-04-03T03:52:54;3.55;;;1.13;;
79412;SDS011;68863;49.528;11.010;2023-04-03T03:53:54;4.20;;;1.00;;
79412;SDS011;68863;49.528;11.010;2023-04-03T03:54:55;3.45;;;0.90;;
79412;SDS011;68863;49.528;11.010;2023-04-03T03:55:55;3.60;;;0.90;;
79412;SDS011;68863;49.528;11.010;2023-04-03T03:56:55;4.15;;;1.08;;
79412;SDS011;68863;49.528;11.010;2023-04-03T03:57:56;5.50;;;1.43;;
79412;SDS011;68863;49.528;11.010;2023-04-03T03:58:56;3.90;;;1.00;;
79412;SDS011;68863;49.528;11.010;2023-04-03T03:59:56;3.22;;;0.93;;
79412;SDS011;68863;49.528;11.010;2023-04-03T04:00:56;3.70;;;1.10;;
79412;SDS011;68863;49.528;11.010;2023-04-03T04:01:59;5.43;;;1.02;;
79412;SDS011;68863;49.528;11.010;2023-04-03T04:03:00;3.65;;;1.02;;
79412;SDS011;68863;49.528;11.010;2023-04-03T04:04:00;4.40;;;1.23;;
79412;SDS011;68863;49.528;11.010;2023-04-03T04:05:01;4.03;;;0.95;;
79412;SDS011;68863;49.528;11.010;2023-04-03T04:06:01;4.80;;;1.00;;
79412;SDS011;68863;49.528;11.010;2023-04-03T04:07:01;4.93;;;1.00;;
79412;SDS011;68863;49.528;11.010;2023-04-03T04:08:02;3.20;;;0.90;;
79412;SDS011;68863;49.528;11.010;2023-04-03T04:09:02;3.47;;;0.90;;
79412;SDS011;68863;49.528;11.010;2023-04-03T04:10:03;4.15;;;1.02;;
79412;SDS011;68863;49.528;11.010;2023-04-03T04:11:04;4.93;;;1.40;;
79412;SDS011;68863;49.528;11.010;2023-04-03T04:12:04;6.28;;;1.58;;
79412;SDS011;68863;49.528;11.010;2023-04-03T04:13:05;4.30;;;1.27;;
79412;SDS011;68863;49.528;11.010;2023-04-03T04:14:05;4.28;;;1.00;;
79412;SDS011;68863;49.528;11.010;2023-04-03T04:15:06;4.28;;;1.10;;
79412;SDS011;68863;49.528;11.010;2023-04-03T04:16:07;4.63;;;1.10;;
79412;SDS011;68863;49.528;11.010;2023-04-03T04:17:07;4.45;;;1.00;;
79412;SDS011;68863;49.528;11.010;2023-04-03T04:18:08;3.67;;;1.02;;
79412;SDS011;68863;49.528;11.010;2023-04-03T04:19:08;4.03;;;1.17;;
79412;SDS011;68863;49.528;11.010;2023-04-03T04:20:08;4.90;;;1.10;;
79412;SDS011;68863;49.528;11.010;2023-04-03T04:21:09;6.22;;;1.23;;
79412;SDS011;68863;49.528;11.010;2023-04-03T04:22:09;3.60;;;1.25;;
79412;SDS011;68863;49.528;11.010;2023-04-03T04:23:10;5.22;;;1.48;;
79412;SDS011;68863;49.528;11.010;2023-04-03T04:24:10;4.85;;;1.27;;
79412;SDS011;68863;49.528;11.010;2023-04-03T04:25:10;4.50;;;1.25;;
79412;SDS011;68863;49.528;11.010;2023-04-03T04:26:10;4.60;;;1.27;;
79412;SDS011;68863;49.528;11.010;2023-04-03T04:27:11;8.60;;;1.60;;
79412;SDS011;68863;49.528;11.010;2023-04-03T04:28:11;5.05;;;1.35;;
79412;SDS011;68863;49.528;11.010;2023-04-03T04:29:12;3.75;;;1.25;;
79412;SDS011;68863;49.528;11.010;2023-04-03T04:30:12;5.25;;;1.25;;
79412;SDS011;68863;49.528;11.010;2023-04-03T04:31:13;4.32;;;1.15;;
79412;SDS011;68863;49.528;11.010;2023-04-03T04:32:13;5.47;;;1.20;;
79412;SDS011;68863;49.528;11.010;2023-04-03T04:33:14;4.15;;;1.27;;
79412;SDS011;68863;49.528;11.010;2023-04-03T04:34:14;4.03;;;1.27;;
79412;SDS011;68863;49.528;11.010;2023-04-03T04:35:15;6.22;;;1.67;;
79412;SDS011;68863;49.528;11.010;2023-04-03T04:36:15;5.53;;;1.40;;
79412;SDS011;68863;49.528;11.010;2023-04-03T04:37:15;4.18;;;1.40;;
79412;SDS011;68863;49.528;11.010;2023-04-03T04:38:16;4.20;;;1.58;;
79412;SDS011;68863;49.528;11.010;2023-04-03T04:39:16;5.10;;;1.70;;
79412;SDS011;68863;49.528;11.010;2023-04-03T04:40:17;4.70;;;1.20;;
79412;SDS011;68863;49.528;11.010;2023-04-03T04:41:17;5.72;;;1.77;;
79412;SDS011;68863;49.528;11.010;2023-04-03T04:42:21;3.35;;;1.33;;
79412;SDS011;68863;49.528;11.010;2023-04-03T04:43:21;6.35;;;1.27;;
79412;SDS011;68863;49.528;11.010;2023-04-03T04:44:21;3.40;;;1.03;;
79412;SDS011;68863;49.528;11.010;2023-04-03T04:45:21;5.07;;;1.23;;
79412;SDS011;68863;49.528;11.010;2023-04-03T04:46:22;4.37;;;1.53;;
79412;SDS011;68863;49.528;11.010;2023-04-03T04:47:22;5.22;;;1.27;;
79412;SDS011;68863;49.528;11.010;2023-04-03T04:48:22;5.10;;;1.23;;
79412;SDS011;68863;49.528;11.010;2023-04-03T04:49:23;6.65;;;1.45;;
79412;SDS011;68863;49.528;11.010;2023-04-03T04:50:23;3.50;;;1.00;;
79412;SDS011;68863;49.528;11.010;2023-04-03T04:51:23;4.27;;;1.10;;
79412;SDS011;68863;49.528;11.010;2023-04-03T04:52:25;3.78;;;1.00;;
79412;SDS011;68863;49.528;11.010;2023-04-03T04:53:25;4.50;;;1.03;;
79412;SDS011;68863;49.528;11.010;2023-04-03T04:54:25;3.35;;;1.23;;
79412;SDS011;68863;49.528;11.010;2023-04-03T04:55:25;4.90;;;1.17;;
79412;SDS011;68863;49.528;11.010;2023-04-03T04:56:26;4.93;;;1.17;;
79412;SDS011;68863;49.528;11.010;2023-04-03T04:57:26;6.32;;;1.60;;
79412;SDS011;68863;49.528;11.010;2023-04-03T04:58:26;6.35;;;1.55;;
79412;SDS011;68863;49.528;11.010;2023-04-03T04:59:27;7.00;;;1.58;;
79412;SDS011;68863;49.528;11.010;2023-04-03T05:00:27;4.63;;;1.42;;
79412;SDS011;68863;49.528;11.010;2023-04-03T05:01:27;5.30;;;1.30;;
79412;SDS011;68863;49.528;11.010;2023-04-03T05:02:28;6.00;;;1.90;;
79412;SDS011;68863;49.528;11.010;2023-04-03T05:03:29;4.95;;;1.55;;
79412;SDS011;68863;49.528;11.010;2023-04-03T05:04:29;6.70;;;1.40;;
79412;SDS011;68863;49.528;11.010;2023-04-03T05:05:29;4.60;;;1.15;;
79412;SDS011;68863;49.528;11.010;2023-04-03T05:06:30;5.32;;;1.55;;
79412;SDS011;68863;49.528;11.010;2023-04-03T05:07:31;3.90;;;1.52;;
79412;SDS011;68863;49.528;11.010;2023-04-03T05:08:32;4.65;;;1.42;;
79412;SDS011;68863;49.528;11.010;2023-04-03T05:09:32;3.92;;;1.30;;
79412;SDS011;68863;49.528;11.010;2023-04-03T05:10:32;5.97;;;1.45;;
79412;SDS011;68863;49.528;11.010;2023-04-03T05:11:32;3.70;;;1.20;;
79412;SDS011;68863;49.528;11.010;2023-04-03T05:12:33;3.75;;;1.30;;
79412;SDS011;68863;49.528;11.010;2023-04-03T05:13:33;5.00;;;1.60;;
79412;SDS011;68863;49.528;11.010;2023-04-03T05:14:33;6.10;;;1.40;;
79412;SDS011;68863;49.528;11.010;2023-04-03T05:15:33;4.90;;;1.50;;
79412;SDS011;68863;49.528;11.010;2023-04-03T05:16:34;6.43;;;1.57;;
79412;SDS011;68863;49.528;11.010;2023-04-03T05:17:34;3.65;;;1.13;;
79412;SDS011;68863;49.528;11.010;2023-04-03T05:23:29;6.10;;;1.20;;
79412;SDS011;68863;49.528;11.010;2023-04-03T05:24:29;4.05;;;1.00;;
79412;SDS011;68863;49.528;11.010;2023-04-03T05:25:30;6.57;;;1.30;;
79412;SDS011;68863;49.528;11.010;2023-04-03T05:26:30;5.87;;;1.57;;
79412;SDS011;68863;49.528;11.010;2023-04-03T05:27:31;6.20;;;1.80;;
79412;SDS011;68863;49.528;11.010;2023-04-03T05:28:31;4.93;;;1.58;;
79412;SDS011;68863;49.528;11.010;2023-04-03T05:29:32;5.28;;;1.33;;
79412;SDS011;68863;49.528;11.010;2023-04-03T05:30:32;6.25;;;1.50;;
79412;SDS011;68863;49.528;11.010;2023-04-03T05:31:33;5.15;;;1.50;;
79412;SDS011;68863;49.528;11.010;2023-04-03T05:32:33;5.45;;;1.40;;
79412;SDS011;68863;49.528;11.010;2023-04-03T05:33:33;3.83;;;1.27;;
79412;SDS011;68863;49.528;11.010;2023-04-03T05:34:33;4.63;;;1.50;;
79412;SDS011;68863;49.528;11.010;2023-04-03T05:35:35;4.70;;;1.17;;
79412;SDS011;68863;49.528;11.010;2023-04-03T05:36:36;5.75;;;1.27;;
79412;SDS011;68863;49.528;11.010;2023-04-03T05:37:36;4.78;;;1.30;;
79412;SDS011;68863;49.528;11.010;2023-04-03T05:38:37;3.85;;;1.00;;
79412;SDS011;68863;49.528;11.010;2023-04-03T05:39:37;4.07;;;1.10;;
79412;SDS011;68863;49.528;11.010;2023-04-03T05:40:40;4.82;;;1.20;;
79412;SDS011;68863;49.528;11.010;2023-04-03T05:41:40;5.18;;;1.05;;
79412;SDS011;68863;49.528;11.010;2023-04-03T05:42:40;3.37;;;0.90;;
79412;SDS011;68863;49.528;11.010;2023-04-03T05:43:41;4.82;;;1.00;;
79412;SDS011;68863;49.528;11.010;2023-04-03T05:44:41;4.25;;;1.10;;
79412;SDS011;68863;49.528;11.010;2023-04-03T05:45:42;4.93;;;1.25;;
79412;SDS011;68863;49.528;11.010;2023-04-03T05:46:43;5.45;;;1.58;;
79412;SDS011;68863;49.528;11.010;2023-04-03T05:47:43;5.55;;;1.88;;
79412;SDS011;68863;49.528;11.010;2023-04-03T05:48:44;3.75;;;1.10;;
79412;SDS011;68863;49.528;11.010;2023-04-03T05:49:44;4.40;;;1.00;;
79412;SDS011;68863;49.528;11.010;2023-04-03T05:50:45;5.55;;;1.60;;
79412;SDS011;68863;49.528;11.010;2023-04-03T05:51:46;4.03;;;1.38;;
79412;SDS011;68863;49.528;11.010;2023-04-03T05:52:47;4.60;;;1.10;;
79412;SDS011;68863;49.528;11.010;2023-04-03T05:53:49;6.03;;;1.40;;
79412;SDS011;68863;49.528;11.010;2023-04-03T05:54:56;5.82;;;1.60;;
79412;SDS011;68863;49.528;11.010;2023-04-03T05:55:57;5.43;;;1.47;;
79412;SDS011;68863;49.528;11.010;2023-04-03T05:56:57;6.68;;;1.95;;
79412;SDS011;68863;49.528;11.010;2023-04-03T05:57:58;5.90;;;2.10;;
79412;SDS011;68863;49.528;11.010;2023-04-03T05:58:58;5.03;;;2.27;;
79412;SDS011;68863;49.528;11.010;2023-04-03T05:59:58;5.37;;;2.00;;
79412;SDS011;68863;49.528;11.010;2023-04-03T06:00:58;5.47;;;1.45;;
79412;SDS011;68863;49.528;11.010;2023-04-03T06:01:59;5.28;;;1.30;;
79412;SDS011;68863;49.528;11.010;2023-04-03T06:02:59;6.88;;;1.40;;
79412;SDS011;68863;49.528;11.010;2023-04-03T06:04:00;5.47;;;1.02;;
79412;SDS011;68863;49.528;11.010;2023-04-03T06:05:00;4.97;;;1.63;;
79412;SDS011;68863;49.528;11.010;2023-04-03T06:06:02;5.88;;;1.50;;
79412;SDS011;68863;49.528;11.010;2023-04-03T06:07:03;4.35;;;1.02;;
79412;SDS011;68863;49.528;11.010;2023-04-03T06:08:04;5.38;;;1.13;;
79412;SDS011;68863;49.528;11.010;2023-04-03T06:09:04;3.80;;;1.20;;
79412;SDS011;68863;49.528;11.010;2023-04-03T06:10:04;5.03;;;1.20;;
79412;SDS011;68863;49.528;11.010;2023-04-03T06:11:06;5.30;;;1.85;;
79412;SDS011;68863;49.528;11.010;2023-04-03T06:12:08;5.35;;;1.10;;
79412;SDS011;68863;49.528;11.010;2023-04-03T06:13:09;4.30;;;1.60;;
79412;SDS011;68863;49.528;11.010;2023-04-03T06:14:10;4.30;;;1.27;;
79412;SDS011;68863;49.528;11.010;2023-04-03T06:15:10;5.05;;;1.65;;